createdAt,value
2022-11-24T00:00:37.320Z,772.8963210702341
2022-11-24T00:07:06.021Z,825.2408026755853
2022-11-24T00:13:38.080Z,805.5451505016722
2022-11-24T00:22:16.638Z,1120.7959866220735
2022-11-24T00:28:43.722Z,1002.1304347826087
2022-11-24T00:38:08.072Z,846.2107023411371
2022-11-24T00:44:35.582Z,897.8829431438127
2022-11-24T00:51:03.267Z,924.2107023411371
2022-11-24T01:02:08.548Z,876.2006688963211
2022-11-24T01:08:38.076Z,938.819397993311
2022-11-24T01:15:15.893Z,935.2876254180602
2022-11-24T01:21:43.586Z,952.3545150501673
2022-11-24T01:33:18.988Z,945.7725752508361
2022-11-24T01:39:46.306Z,952.0535117056857
2022-11-24T01:46:14.765Z,1009.3946488294314
2022-11-24T01:52:42.523Z,1002.8227424749164
2022-11-24T01:59:10.247Z,1031.799331103679
2022-11-24T02:05:38.035Z,1018.1739130434783
2022-11-24T02:14:13.392Z,1080.752508361204
2022-11-24T02:25:12.661Z,1085.3879598662206
2022-11-24T02:31:41.229Z,1070.6588628762543
2022-11-24T02:38:09.359Z,1073.3979933110368
2022-11-24T02:44:37.401Z,1107.371237458194
2022-11-24T02:51:04.737Z,1136.819397993311
2022-11-24T02:57:32.861Z,1141.6354515050168
2022-11-24T03:04:00.515Z,1137.772575250836
2022-11-24T03:10:37.624Z,1118.8996655518395
2022-11-24T03:17:05.161Z,1154.4882943143812
2022-11-24T03:24:48.560Z,1170.7826086956522
2022-11-24T03:31:16.412Z,1161.0301003344482
2022-11-24T03:37:43.945Z,1234.7859531772576
2022-11-24T03:44:27.102Z,1188.6622073578596
2022-11-24T03:50:54.944Z,1187.076923076923
2022-11-24T03:57:23.186Z,1245.1003344481605
2022-11-24T04:03:52.930Z,1287.8127090301002
2022-11-24T04:10:40.740Z,1289.3678929765886
2022-11-24T04:17:09.227Z,1342.9364548494984
2022-11-24T04:29:20.711Z,1259.0869565217392
2022-11-24T04:41:38.901Z,1277.2073578595318
2022-11-24T04:48:06.953Z,1271.3678929765886
2022-11-24T04:54:35.458Z,1217.7491638795987
2022-11-24T05:05:54.943Z,1309.3846153846155
2022-11-24T05:12:45.744Z,1289.7892976588628
2022-11-24T05:19:16.876Z,1286.1371237458195
2022-11-24T05:25:47.786Z,1257.4314381270904
2022-11-24T05:32:16.371Z,1293.5418060200668
2022-11-24T05:40:17.354Z,1513.284280936455
